createdAt,value
2019-02-05T00:00:56.773Z,11.08
2019-02-05T00:02:01.932Z,11.05
2019-02-05T00:03:08.148Z,11.97
2019-02-05T00:04:13.003Z,11.78
2019-02-05T00:05:17.876Z,11.75
2019-02-05T00:06:22.780Z,12.47
2019-02-05T00:07:27.587Z,11.00
2019-02-05T00:08:32.572Z,11.43
2019-02-05T00:09:37.543Z,12.33
2019-02-05T00:10:42.734Z,11.00
2019-02-05T00:11:48.356Z,11.00
2019-02-05T00:12:53.227Z,11.80
2019-02-05T00:13:58.099Z,12.47
2019-02-05T00:15:03.031Z,12.35
2019-02-05T00:16:07.944Z,13.10
2019-02-05T00:17:12.872Z,13.50
2019-02-05T00:18:17.824Z,12.25
2019-02-05T00:19:22.596Z,12.00
2019-02-05T00:20:27.532Z,11.63
2019-02-05T00:21:32.334Z,13.62
2019-02-05T00:22:37.236Z,12.28
2019-02-05T00:23:43.103Z,13.75
2019-02-05T00:24:47.995Z,12.75
2019-02-05T00:25:52.781Z,12.75
2019-02-05T00:26:57.752Z,14.05
2019-02-05T00:28:02.660Z,13.48
2019-02-05T00:29:07.415Z,14.45
2019-02-05T00:30:13.783Z,14.13
2019-02-05T00:31:18.965Z,14.20
2019-02-05T00:32:23.852Z,12.90
2019-02-05T00:33:28.776Z,14.45
2019-02-05T00:34:33.663Z,12.15
2019-02-05T00:35:38.465Z,13.35
2019-02-05T00:36:43.447Z,14.00
2019-02-05T00:37:48.417Z,14.35
2019-02-05T00:38:53.205Z,14.55
2019-02-05T00:39:58.288Z,14.83
2019-02-05T00:41:03.288Z,14.15
2019-02-05T00:42:08.084Z,13.15
2019-02-05T00:43:13.076Z,13.75
2019-02-05T00:44:17.925Z,13.80
2019-02-05T00:45:22.890Z,15.15
2019-02-05T00:46:27.860Z,13.25
2019-02-05T00:47:32.812Z,14.43
2019-02-05T00:48:37.597Z,13.90
2019-02-05T00:49:42.924Z,13.18
2019-02-05T00:50:48.096Z,13.83
2019-02-05T00:51:52.880Z,15.43
2019-02-05T00:52:57.896Z,15.40
2019-02-05T00:54:02.788Z,14.05
2019-02-05T00:55:09.241Z,14.95
2019-02-05T00:56:17.607Z,15.30
2019-02-05T00:57:20.760Z,15.75
2019-02-05T00:58:25.870Z,14.55
2019-02-05T00:59:30.772Z,15.13
2019-02-05T01:00:35.687Z,14.03
2019-02-05T01:01:40.735Z,14.75
2019-02-05T01:02:45.948Z,13.93
2019-02-05T01:03:50.829Z,13.65
2019-02-05T01:04:55.709Z,14.38
2019-02-05T01:06:00.708Z,14.25
2019-02-05T01:07:05.694Z,15.65
2019-02-05T01:08:10.892Z,14.93
2019-02-05T01:09:16.068Z,14.30
2019-02-05T01:10:23.466Z,15.93
2019-02-05T01:11:28.679Z,14.53
2019-02-05T01:12:33.557Z,15.23
2019-02-05T01:13:38.467Z,15.08
2019-02-05T01:14:43.332Z,14.98
2019-02-05T01:15:48.091Z,15.15
2019-02-05T01:16:52.974Z,15.63
2019-02-05T01:17:57.988Z,16.02
2019-02-05T01:19:02.781Z,15.05
2019-02-05T01:20:09.725Z,14.43
2019-02-05T01:21:15.263Z,15.35
2019-02-05T01:22:20.008Z,14.98
2019-02-05T01:23:24.891Z,15.23
2019-02-05T01:24:29.772Z,15.55
2019-02-05T01:25:34.572Z,15.65
2019-02-05T01:26:39.556Z,15.45
2019-02-05T01:27:44.646Z,15.03
2019-02-05T01:28:50.524Z,15.13
2019-02-05T01:29:55.409Z,15.78
2019-02-05T01:31:00.541Z,14.55
2019-02-05T01:32:05.514Z,14.98
2019-02-05T01:33:10.553Z,15.70
2019-02-05T01:34:15.292Z,15.88
2019-02-05T01:35:20.396Z,16.17
2019-02-05T01:36:25.343Z,15.70
2019-02-05T01:37:30.141Z,15.05
2019-02-05T01:38:35.025Z,14.55
2019-02-05T01:39:40.002Z,15.95
2019-02-05T01:40:44.924Z,15.78
2019-02-05T01:41:49.821Z,15.45
2019-02-05T01:42:55.236Z,14.78
2019-02-05T01:43:59.996Z,15.63
2019-02-05T01:45:06.048Z,17.10
2019-02-05T01:46:11.012Z,15.50
2019-02-05T01:47:15.772Z,15.60
2019-02-05T01:48:20.672Z,15.88
2019-02-05T01:49:25.512Z,15.13
2019-02-05T01:50:30.676Z,14.78
2019-02-05T01:51:35.533Z,15.08
2019-02-05T01:52:40.424Z,14.30
2019-02-05T01:53:45.188Z,14.73
2019-02-05T01:54:50.088Z,15.70
2019-02-05T01:55:55.016Z,14.47
2019-02-05T01:56:59.891Z,15.68
2019-02-05T01:58:04.876Z,14.65
2019-02-05T01:59:09.792Z,14.90
2019-02-05T02:00:17.696Z,14.47
2019-02-05T02:01:22.581Z,15.32
2019-02-05T02:02:27.493Z,14.28
2019-02-05T02:03:32.363Z,14.65
2019-02-05T02:04:37.216Z,15.32
2019-02-05T02:05:41.995Z,15.10
2019-02-05T02:06:46.849Z,15.70
2019-02-05T02:07:51.956Z,14.98
2019-02-05T02:08:56.720Z,15.55
2019-02-05T02:10:02.011Z,15.30
2019-02-05T02:11:06.877Z,15.90
2019-02-05T02:12:11.663Z,15.60
2019-02-05T02:13:16.532Z,16.65
2019-02-05T02:14:21.437Z,16.70
2019-02-05T02:15:26.308Z,15.65
2019-02-05T02:16:31.054Z,15.48
2019-02-05T02:17:35.912Z,16.02
2019-02-05T02:18:40.709Z,15.95
2019-02-05T02:19:45.782Z,15.98
2019-02-05T02:20:50.625Z,15.25
2019-02-05T02:21:55.360Z,15.83
2019-02-05T02:23:00.306Z,16.00
2019-02-05T02:24:05.348Z,17.25
2019-02-05T02:25:10.672Z,15.63
2019-02-05T02:26:18.544Z,16.80
2019-02-05T02:27:23.336Z,17.15
2019-02-05T02:28:28.672Z,15.78
2019-02-05T02:29:34.164Z,17.40
2019-02-05T02:30:40.175Z,17.15
2019-02-05T02:31:45.109Z,15.98
2019-02-05T02:32:50.157Z,16.15
2019-02-05T02:33:54.923Z,16.37
2019-02-05T02:34:59.781Z,16.32
2019-02-05T02:36:04.682Z,16.70
2019-02-05T02:37:09.455Z,16.12
2019-02-05T02:38:14.453Z,15.60
2019-02-05T02:39:19.324Z,16.10
2019-02-05T02:40:24.024Z,15.83
2019-02-05T02:41:28.992Z,15.58
2019-02-05T02:42:33.887Z,16.00
2019-02-05T02:43:38.661Z,16.23
2019-02-05T02:44:43.544Z,15.88
2019-02-05T02:45:48.376Z,16.62
2019-02-05T02:46:53.143Z,14.30
2019-02-05T02:47:58.519Z,14.65
2019-02-05T02:49:03.726Z,15.48
2019-02-05T02:50:10.196Z,14.98
2019-02-05T02:51:15.169Z,16.35
2019-02-05T02:52:19.927Z,15.40
2019-02-05T02:53:24.829Z,15.50
2019-02-05T02:54:29.836Z,15.45
2019-02-05T02:55:34.700Z,15.45
2019-02-05T02:56:39.639Z,13.53
2019-02-05T02:57:44.715Z,15.18
2019-02-05T02:58:49.500Z,15.23
2019-02-05T02:59:54.368Z,15.23
2019-02-05T03:00:59.320Z,15.43
2019-02-05T03:02:04.161Z,14.50
2019-02-05T03:03:08.917Z,14.20
2019-02-05T03:04:13.818Z,14.68
2019-02-05T03:05:20.636Z,14.80
2019-02-05T03:06:25.809Z,14.20
2019-02-05T03:07:31.089Z,14.55
2019-02-05T03:08:36.076Z,15.43
2019-02-05T03:09:41.062Z,15.45
2019-02-05T03:10:46.061Z,14.87
2019-02-05T03:11:50.813Z,14.38
2019-02-05T03:12:56.193Z,15.53
2019-02-05T03:14:01.188Z,15.48
2019-02-05T03:15:09.100Z,14.78
2019-02-05T03:16:14.061Z,14.53
2019-02-05T03:17:18.785Z,14.83
2019-02-05T03:18:23.593Z,15.03
2019-02-05T03:19:28.464Z,15.68
2019-02-05T03:20:33.208Z,15.00
2019-02-05T03:21:38.092Z,15.55
2019-02-05T03:22:45.301Z,16.45
2019-02-05T03:23:49.758Z,15.60
2019-02-05T03:24:54.635Z,15.15
2019-02-05T03:25:59.582Z,15.20
2019-02-05T03:27:16.929Z,14.78
2019-02-05T03:28:10.964Z,15.43
2019-02-05T03:29:15.786Z,15.25
2019-02-05T03:30:22.412Z,15.13
2019-02-05T03:31:27.379Z,15.68
2019-02-05T03:32:32.173Z,15.53
2019-02-05T03:33:37.099Z,14.98
2019-02-05T03:34:42.070Z,14.18
2019-02-05T03:35:46.804Z,13.62
2019-02-05T03:36:51.791Z,16.10
2019-02-05T03:37:56.744Z,14.30
2019-02-05T03:39:01.584Z,15.55
2019-02-05T03:40:15.845Z,15.68
2019-02-05T03:41:20.872Z,15.40
2019-02-05T03:42:25.722Z,16.05
2019-02-05T03:43:31.012Z,15.00
2019-02-05T03:44:35.894Z,15.15
2019-02-05T03:45:40.832Z,15.50
2019-02-05T03:46:45.700Z,14.20
2019-02-05T03:47:52.032Z,15.05
2019-02-05T03:48:57.136Z,15.78
2019-02-05T03:50:02.089Z,15.70
2019-02-05T03:51:47.949Z,15.68
2019-02-05T03:52:56.604Z,12.75
2019-02-05T03:54:25.662Z,14.20
2019-02-05T03:55:57.732Z,14.05
2019-02-05T03:57:46.772Z,14.05
2019-02-05T03:59:41.525Z,14.50
2019-02-05T04:01:05.952Z,14.90
2019-02-05T04:02:54.960Z,13.80
2019-02-05T04:04:34.832Z,14.75
2019-02-05T04:06:12.445Z,14.83
2019-02-05T04:07:53.348Z,14.25
2019-02-05T04:09:40.789Z,14.25
2019-02-05T04:11:38.882Z,14.80
2019-02-05T04:13:20.364Z,14.05
2019-02-05T04:14:48.841Z,14.73
2019-02-05T04:16:32.893Z,14.13
2019-02-05T04:18:34.312Z,14.33
2019-02-05T04:20:23.925Z,12.70
2019-02-05T04:22:21.576Z,13.32
2019-02-05T04:24:02.503Z,13.25
2019-02-05T04:25:35.216Z,13.20
2019-02-05T04:27:43.624Z,13.65
2019-02-05T04:29:09.356Z,13.98
2019-02-05T04:31:07.296Z,14.98
2019-02-05T04:32:52.747Z,12.50
2019-02-05T04:34:30.328Z,12.93
2019-02-05T04:36:19.218Z,13.15
2019-02-05T04:37:42.335Z,13.95
2019-02-05T04:39:19.167Z,13.48
2019-02-05T04:41:11.021Z,11.75
2019-02-05T04:42:50.961Z,12.50
2019-02-05T04:44:41.723Z,13.38
2019-02-05T04:46:21.096Z,12.63
2019-02-05T04:48:02.777Z,13.05
2019-02-05T04:49:54.916Z,11.97
2019-02-05T04:51:17.041Z,13.05
2019-02-05T04:53:12.120Z,11.80
2019-02-05T04:54:39.698Z,11.83
2019-02-05T04:56:19.223Z,12.03
2019-02-05T04:58:01.597Z,11.97
2019-02-05T05:00:05.154Z,11.20
2019-02-05T05:01:21.056Z,11.00
2019-02-05T05:02:55.848Z,11.55
2019-02-05T05:04:37.594Z,12.13
2019-02-05T05:06:26.805Z,11.83
2019-02-05T05:08:23.417Z,11.50
2019-02-05T05:10:01.838Z,10.95
2019-02-05T05:11:06.532Z,11.70
2019-02-05T05:12:11.813Z,12.33
2019-02-05T05:13:16.960Z,12.05
2019-02-05T05:14:21.955Z,12.07
2019-02-05T05:15:27.000Z,12.28
2019-02-05T05:16:31.796Z,12.20
2019-02-05T05:17:36.916Z,12.98
2019-02-05T05:18:41.761Z,12.58
2019-02-05T05:19:47.464Z,12.93
2019-02-05T05:20:52.424Z,13.00
2019-02-05T05:21:57.836Z,12.35
2019-02-05T05:23:02.813Z,13.38
2019-02-05T05:24:07.846Z,12.43
2019-02-05T05:25:13.062Z,12.90
2019-02-05T05:26:17.903Z,12.63
2019-02-05T05:27:24.656Z,12.55
2019-02-05T05:28:29.785Z,12.73
2019-02-05T05:29:34.765Z,12.45
2019-02-05T05:30:40.337Z,13.25
2019-02-05T05:31:45.500Z,11.25
2019-02-05T05:32:50.718Z,12.30
2019-02-05T05:33:55.673Z,12.45
2019-02-05T05:35:00.518Z,13.70
2019-02-05T05:36:05.688Z,12.65
2019-02-05T05:37:08.756Z,12.25
2019-02-05T05:38:13.618Z,12.68
2019-02-05T05:39:18.751Z,12.00
2019-02-05T05:40:23.623Z,11.65
2019-02-05T05:41:28.452Z,11.95
2019-02-05T05:42:33.244Z,11.63
2019-02-05T05:43:38.165Z,12.53
2019-02-05T05:44:43.180Z,12.68
2019-02-05T05:45:48.078Z,12.37
2019-02-05T05:46:53.220Z,12.65
2019-02-05T05:47:58.617Z,12.50
2019-02-05T05:49:06.354Z,12.93
2019-02-05T05:50:13.809Z,12.10
2019-02-05T05:51:18.787Z,13.05
2019-02-05T05:52:23.964Z,12.25
2019-02-05T05:53:28.693Z,12.45
2019-02-05T05:54:33.606Z,13.65
2019-02-05T05:55:38.486Z,12.65
2019-02-05T05:56:43.231Z,11.93
2019-02-05T05:57:48.064Z,13.30
2019-02-05T05:58:52.911Z,12.23
2019-02-05T05:59:57.734Z,11.70
2019-02-05T06:01:02.616Z,12.50
2019-02-05T06:02:07.834Z,12.35
2019-02-05T06:03:12.745Z,12.90
2019-02-05T06:04:17.838Z,13.45
2019-02-05T06:05:23.177Z,13.80
2019-02-05T06:06:28.452Z,13.13
2019-02-05T06:07:33.624Z,13.15
2019-02-05T06:08:38.588Z,12.47
2019-02-05T06:09:43.557Z,12.55
2019-02-05T06:10:48.436Z,13.45
2019-02-05T06:11:53.331Z,12.05
2019-02-05T06:12:58.136Z,12.33
2019-02-05T06:14:03.142Z,13.18
2019-02-05T06:15:09.564Z,13.22
2019-02-05T06:16:14.476Z,12.78
2019-02-05T06:17:19.357Z,13.20
2019-02-05T06:18:24.350Z,12.95
2019-02-05T06:19:29.137Z,13.20
2019-02-05T06:20:34.376Z,13.08
2019-02-05T06:21:39.274Z,12.15
2019-02-05T06:22:44.019Z,13.72
2019-02-05T06:23:49.097Z,12.90
2019-02-05T06:24:54.614Z,12.80
2019-02-05T06:25:59.748Z,13.30
2019-02-05T06:27:05.412Z,12.30
2019-02-05T06:28:10.762Z,14.00
2019-02-05T06:29:15.878Z,14.18
2019-02-05T06:30:21.468Z,13.20
2019-02-05T06:31:26.233Z,14.50
2019-02-05T06:32:31.212Z,13.83
2019-02-05T06:33:36.104Z,14.43
2019-02-05T06:34:41.102Z,14.07
2019-02-05T06:35:46.125Z,15.35
2019-02-05T06:36:50.994Z,14.58
2019-02-05T06:37:56.185Z,14.93
2019-02-05T06:39:01.369Z,14.23
2019-02-05T06:40:07.413Z,14.07
2019-02-05T06:41:12.460Z,13.98
2019-02-05T06:42:18.106Z,13.90
2019-02-05T06:43:23.233Z,14.70
2019-02-05T06:44:28.376Z,16.07
2019-02-05T06:45:33.369Z,14.07
2019-02-05T06:46:38.378Z,13.93
2019-02-05T06:47:43.802Z,14.23
2019-02-05T06:48:48.937Z,14.73
2019-02-05T06:49:53.885Z,13.88
2019-02-05T06:50:59.097Z,14.87
2019-02-05T06:52:04.332Z,14.28
2019-02-05T06:53:09.276Z,15.43
2019-02-05T06:54:14.477Z,13.90
2019-02-05T06:55:19.732Z,14.60
2019-02-05T06:56:24.616Z,14.07
2019-02-05T06:57:29.575Z,13.43
2019-02-05T06:58:45.673Z,13.13
2019-02-05T06:59:44.777Z,13.38
2019-02-05T07:00:49.980Z,12.65
2019-02-05T07:01:55.320Z,13.45
2019-02-05T07:03:00.932Z,13.30
2019-02-05T07:04:06.288Z,13.95
2019-02-05T07:05:12.052Z,13.13
2019-02-05T07:06:17.061Z,13.38
2019-02-05T07:07:21.881Z,13.72
2019-02-05T07:08:26.748Z,12.78
2019-02-05T07:09:31.768Z,13.75
2019-02-05T07:10:36.658Z,16.25
2019-02-05T07:11:41.754Z,14.47
2019-02-05T07:12:47.358Z,16.45
2019-02-05T07:13:53.084Z,13.58
2019-02-05T07:14:58.788Z,13.38
2019-02-05T07:16:03.801Z,13.25
2019-02-05T07:17:08.822Z,14.63
2019-02-05T07:18:13.739Z,12.53
2019-02-05T07:19:18.670Z,13.03
2019-02-05T07:20:27.321Z,14.03
2019-02-05T07:21:32.555Z,13.03
2019-02-05T07:22:37.900Z,13.13
2019-02-05T07:23:43.133Z,14.18
2019-02-05T07:24:48.432Z,13.95
2019-02-05T07:25:56.621Z,14.85
2019-02-05T07:27:01.704Z,15.25
2019-02-05T07:28:06.854Z,14.65
2019-02-05T07:29:12.097Z,14.80
2019-02-05T07:30:22.189Z,15.32
2019-02-05T07:31:27.195Z,14.63
2019-02-05T07:32:32.016Z,13.78
2019-02-05T07:33:36.947Z,13.25
2019-02-05T07:34:42.133Z,14.73
2019-02-05T07:35:47.568Z,15.85
2019-02-05T07:36:52.597Z,14.63
2019-02-05T07:37:58.057Z,15.00
2019-02-05T07:39:04.604Z,14.83
2019-02-05T07:40:11.980Z,14.40
2019-02-05T07:41:17.304Z,13.62
2019-02-05T07:42:22.489Z,13.85
2019-02-05T07:43:27.585Z,14.87
2019-02-05T07:44:32.526Z,13.58
2019-02-05T07:45:37.452Z,12.82
2019-02-05T07:46:42.636Z,14.13
2019-02-05T07:47:47.404Z,13.43
2019-02-05T07:48:52.512Z,15.60
2019-02-05T07:49:57.631Z,14.07
2019-02-05T07:51:02.488Z,15.05
2019-02-05T07:52:07.550Z,14.45
2019-02-05T07:53:12.646Z,15.72
2019-02-05T07:54:17.615Z,14.38
2019-02-05T07:55:22.679Z,14.68
2019-02-05T07:56:27.764Z,14.58
2019-02-05T07:57:32.917Z,13.55
2019-02-05T07:58:38.470Z,14.80
2019-02-05T07:59:43.754Z,14.98
2019-02-05T08:00:48.833Z,14.95
2019-02-05T08:01:53.927Z,13.85
2019-02-05T08:02:59.136Z,14.10
2019-02-05T08:04:04.017Z,13.10
2019-02-05T08:05:12.603Z,13.40
2019-02-05T08:06:17.618Z,13.88
2019-02-05T08:07:22.708Z,14.47
2019-02-05T08:08:27.953Z,14.93
2019-02-05T08:09:32.856Z,14.83
2019-02-05T08:10:37.927Z,13.85
2019-02-05T08:11:42.956Z,14.38
2019-02-05T08:12:48.267Z,15.40
2019-02-05T08:13:53.401Z,15.30
2019-02-05T08:14:58.467Z,14.07
2019-02-05T08:16:03.628Z,16.30
2019-02-05T08:17:08.722Z,15.20
2019-02-05T08:18:13.681Z,15.65
2019-02-05T08:19:18.633Z,16.80
2019-02-05T08:20:23.856Z,14.73
2019-02-05T08:21:28.949Z,15.70
2019-02-05T08:22:33.877Z,14.95
2019-02-05T08:23:38.933Z,15.23
2019-02-05T08:24:43.832Z,15.85
2019-02-05T08:25:48.910Z,16.75
2019-02-05T08:26:53.827Z,15.18
2019-02-05T08:27:58.951Z,16.73
2019-02-05T08:29:04.212Z,17.65
2019-02-05T08:30:14.589Z,14.18
2019-02-05T08:31:19.704Z,15.20
2019-02-05T08:32:24.930Z,14.38
2019-02-05T08:33:29.956Z,15.43
2019-02-05T08:34:34.934Z,15.05
2019-02-05T08:35:39.992Z,16.30
2019-02-05T08:36:44.888Z,16.20
2019-02-05T08:37:50.004Z,15.03
2019-02-05T08:38:54.995Z,15.38
2019-02-05T08:40:00.017Z,15.32
2019-02-05T08:41:05.295Z,15.25
2019-02-05T08:42:10.457Z,14.38
2019-02-05T08:43:15.704Z,14.65
2019-02-05T08:44:20.867Z,15.32
2019-02-05T08:45:27.743Z,14.47
2019-02-05T08:46:32.728Z,16.15
2019-02-05T08:47:37.500Z,15.38
2019-02-05T08:48:42.381Z,15.20
2019-02-05T08:49:47.814Z,15.40
2019-02-05T08:50:52.752Z,15.13
2019-02-05T08:51:57.939Z,16.52
2019-02-05T08:53:03.399Z,15.20
2019-02-05T08:54:08.428Z,14.38
2019-02-05T08:55:15.015Z,15.23
2019-02-05T08:56:20.298Z,14.65
2019-02-05T08:57:25.205Z,15.80
2019-02-05T08:58:31.358Z,15.45
2019-02-05T08:59:36.648Z,15.65
2019-02-05T09:00:41.979Z,13.93
2019-02-05T09:01:47.127Z,14.58
2019-02-05T09:02:52.369Z,14.15
2019-02-05T09:03:57.410Z,16.17
2019-02-05T09:05:02.295Z,16.42
2019-02-05T09:06:07.350Z,15.05
2019-02-05T09:07:13.901Z,14.95
2019-02-05T09:08:19.293Z,14.25
2019-02-05T09:09:24.120Z,15.18
2019-02-05T09:10:31.351Z,16.00
2019-02-05T09:11:36.544Z,15.08
2019-02-05T09:12:41.561Z,14.73
2019-02-05T09:13:46.810Z,15.20
2019-02-05T09:14:51.809Z,14.38
2019-02-05T09:15:57.054Z,13.32
2019-02-05T09:17:01.996Z,15.63
2019-02-05T09:18:07.384Z,14.73
2019-02-05T09:19:12.595Z,15.05
2019-02-05T09:20:18.212Z,15.95
2019-02-05T09:21:23.229Z,16.05
2019-02-05T09:22:28.305Z,16.70
2019-02-05T09:23:33.497Z,15.83
2019-02-05T09:24:38.532Z,17.12
2019-02-05T09:25:43.945Z,15.05
2019-02-05T09:26:50.571Z,16.93
2019-02-05T09:27:56.107Z,15.30
2019-02-05T09:29:01.064Z,15.80
2019-02-05T09:30:07.588Z,15.40
2019-02-05T09:31:12.698Z,15.68
2019-02-05T09:32:18.088Z,16.65
2019-02-05T09:33:23.160Z,16.12
2019-02-05T09:34:28.397Z,15.88
2019-02-05T09:35:33.373Z,17.25
2019-02-05T09:36:38.212Z,17.67
2019-02-05T09:37:43.210Z,17.40
2019-02-05T09:38:48.338Z,16.97
2019-02-05T09:39:53.230Z,16.65
2019-02-05T09:40:58.104Z,16.50
2019-02-05T09:42:03.108Z,16.65
2019-02-05T09:43:08.148Z,17.85
2019-02-05T09:44:13.654Z,17.17
2019-02-05T09:45:20.299Z,16.77
2019-02-05T09:46:25.484Z,16.73
2019-02-05T09:47:30.520Z,15.45
2019-02-05T09:48:35.569Z,16.77
2019-02-05T09:49:40.576Z,17.52
2019-02-05T09:50:45.488Z,17.55
2019-02-05T09:51:50.319Z,17.98
2019-02-05T09:52:55.376Z,16.93
2019-02-05T09:54:00.328Z,15.95
2019-02-05T09:55:06.834Z,17.17
2019-02-05T09:56:11.888Z,16.75
2019-02-05T09:57:16.984Z,17.67
2019-02-05T09:58:25.312Z,17.87
2019-02-05T09:59:30.408Z,16.87
2019-02-05T10:00:37.803Z,17.85
2019-02-05T10:01:42.741Z,17.27
2019-02-05T10:02:47.628Z,18.42
2019-02-05T10:03:53.097Z,16.48
2019-02-05T10:04:58.279Z,19.32
2019-02-05T10:06:03.229Z,17.62
2019-02-05T10:07:08.768Z,18.30
2019-02-05T10:08:14.050Z,18.73
2019-02-05T10:09:19.008Z,17.52
2019-02-05T10:10:24.075Z,17.77
2019-02-05T10:11:29.157Z,18.65
2019-02-05T10:12:33.996Z,17.52
2019-02-05T10:13:39.091Z,18.57
2019-02-05T10:14:44.137Z,17.35
2019-02-05T10:15:49.249Z,20.05
2019-02-05T10:16:54.358Z,18.30
2019-02-05T10:17:59.687Z,20.05
2019-02-05T10:19:07.765Z,18.37
2019-02-05T10:20:13.603Z,19.67
2019-02-05T10:21:19.071Z,19.30
2019-02-05T10:22:24.684Z,19.40
2019-02-05T10:23:29.994Z,16.93
2019-02-05T10:24:34.956Z,16.85
2019-02-05T10:25:40.080Z,17.32
2019-02-05T10:26:45.186Z,18.45
2019-02-05T10:27:50.536Z,17.77
2019-02-05T10:28:55.749Z,19.77
2019-02-05T10:30:00.636Z,20.50
2019-02-05T10:31:06.550Z,19.37
2019-02-05T10:32:11.596Z,18.82
2019-02-05T10:33:16.744Z,19.37
2019-02-05T10:34:33.590Z,18.25
2019-02-05T10:35:28.658Z,17.73
2019-02-05T10:36:33.932Z,19.62
2019-02-05T10:37:39.488Z,18.10
2019-02-05T10:38:44.497Z,18.60
2019-02-05T10:39:49.600Z,19.73
2019-02-05T10:40:55.284Z,18.02
2019-02-05T10:42:00.932Z,19.10
2019-02-05T10:43:07.164Z,19.50
2019-02-05T10:44:12.184Z,17.92
2019-02-05T10:45:18.248Z,17.85
2019-02-05T10:46:23.382Z,17.23
2019-02-05T10:47:28.447Z,18.23
2019-02-05T10:48:34.853Z,18.42
2019-02-05T10:49:39.975Z,17.65
2019-02-05T10:50:44.980Z,17.92
2019-02-05T10:51:50.052Z,19.00
2019-02-05T10:52:55.131Z,18.60
2019-02-05T10:54:00.155Z,19.15
2019-02-05T10:55:07.155Z,18.85
2019-02-05T10:56:12.192Z,19.02
2019-02-05T10:57:17.305Z,19.05
2019-02-05T10:58:22.672Z,17.62
2019-02-05T10:59:27.771Z,21.05
2019-02-05T11:00:33.648Z,18.25
2019-02-05T11:01:39.109Z,17.73
2019-02-05T11:02:44.179Z,17.77
2019-02-05T11:03:49.442Z,19.98
2019-02-05T11:04:54.707Z,17.80
2019-02-05T11:05:59.759Z,18.07
2019-02-05T11:07:05.026Z,17.87
2019-02-05T11:08:10.655Z,19.45
2019-02-05T11:09:15.850Z,19.48
2019-02-05T11:10:21.492Z,18.80
2019-02-05T11:11:26.419Z,19.17
2019-02-05T11:12:31.520Z,19.15
2019-02-05T11:13:36.930Z,17.80
2019-02-05T11:14:41.941Z,18.75
2019-02-05T11:15:47.415Z,19.67
2019-02-05T11:16:52.504Z,19.32
2019-02-05T11:17:57.843Z,18.40
2019-02-05T11:19:03.790Z,19.45
2019-02-05T11:20:12.631Z,19.90
2019-02-05T11:21:17.777Z,17.60
2019-02-05T11:22:23.032Z,18.52
2019-02-05T11:23:29.417Z,17.85
2019-02-05T11:24:34.708Z,17.57
2019-02-05T11:25:40.546Z,17.85
2019-02-05T11:26:45.971Z,19.02
2019-02-05T11:27:51.210Z,17.98
2019-02-05T11:28:56.152Z,17.55
2019-02-05T11:30:01.292Z,17.05
2019-02-05T11:31:06.632Z,16.80
2019-02-05T11:32:11.903Z,18.48
2019-02-05T11:33:17.197Z,18.45
2019-02-05T11:34:22.354Z,18.75
2019-02-05T11:35:27.582Z,18.07
2019-02-05T11:36:32.553Z,19.02
2019-02-05T11:37:37.934Z,19.17
2019-02-05T11:38:43.375Z,18.48
2019-02-05T11:39:48.454Z,19.80
2019-02-05T11:40:53.594Z,17.62
2019-02-05T11:41:58.661Z,18.48
2019-02-05T11:43:03.983Z,19.05
2019-02-05T11:44:08.865Z,19.42
2019-02-05T11:45:15.288Z,18.87
2019-02-05T11:46:20.244Z,18.50
2019-02-05T11:47:31.149Z,18.80
2019-02-05T11:48:35.967Z,17.02
2019-02-05T11:49:41.139Z,19.60
2019-02-05T11:50:46.317Z,19.07
2019-02-05T11:51:51.223Z,18.75
2019-02-05T11:52:56.267Z,18.85
2019-02-05T11:54:01.403Z,20.20
2019-02-05T11:55:08.333Z,18.40
2019-02-05T11:56:13.524Z,19.15
2019-02-05T11:57:18.806Z,20.75
2019-02-05T11:58:24.566Z,19.67
2019-02-05T11:59:29.539Z,19.73
2019-02-05T12:00:40.337Z,19.32
2019-02-05T12:01:45.814Z,18.50
2019-02-05T12:02:50.801Z,18.15
2019-02-05T12:03:55.978Z,19.45
2019-02-05T12:05:01.256Z,18.32
2019-02-05T12:06:06.463Z,19.73
2019-02-05T12:07:11.478Z,20.17
2019-02-05T12:08:19.676Z,19.55
2019-02-05T12:09:26.373Z,18.85
2019-02-05T12:10:31.347Z,19.62
2019-02-05T12:11:36.379Z,19.12
2019-02-05T12:12:41.519Z,17.77
2019-02-05T12:13:46.810Z,18.02
2019-02-05T12:14:51.909Z,17.95
2019-02-05T12:15:57.198Z,19.07
2019-02-05T12:17:02.670Z,18.87
2019-02-05T12:18:08.414Z,19.70
2019-02-05T12:19:13.873Z,19.70
2019-02-05T12:20:19.124Z,21.93
2019-02-05T12:21:24.112Z,22.15
2019-02-05T12:22:29.290Z,21.20
2019-02-05T12:23:34.069Z,21.80
2019-02-05T12:24:39.095Z,21.75
2019-02-05T12:25:44.128Z,20.23
2019-02-05T12:26:49.047Z,19.92
2019-02-05T12:27:54.229Z,19.95
2019-02-05T12:28:59.150Z,21.02
2019-02-05T12:30:05.034Z,20.02
2019-02-05T12:31:10.399Z,18.10
2019-02-05T12:32:15.220Z,19.20
2019-02-05T12:33:20.365Z,20.25
2019-02-05T12:34:25.862Z,20.30
2019-02-05T12:35:31.650Z,18.67
2019-02-05T12:36:36.957Z,21.07
2019-02-05T12:37:42.192Z,20.43
2019-02-05T12:38:47.365Z,19.90
2019-02-05T12:39:52.428Z,22.22
2019-02-05T12:40:57.890Z,19.92
2019-02-05T12:42:02.952Z,18.80
2019-02-05T12:43:08.456Z,17.98
2019-02-05T12:44:13.616Z,18.35
2019-02-05T12:45:22.052Z,18.37
2019-02-05T12:46:27.245Z,19.95
2019-02-05T12:47:32.436Z,19.07
2019-02-05T12:48:37.548Z,20.48
2019-02-05T12:49:42.722Z,20.05
2019-02-05T12:50:47.733Z,21.73
2019-02-05T12:51:52.972Z,22.52
2019-02-05T12:52:58.116Z,21.73
2019-02-05T12:54:03.124Z,22.07
2019-02-05T12:55:13.103Z,21.57
2019-02-05T12:56:15.785Z,18.95
2019-02-05T12:57:21.027Z,19.17
2019-02-05T12:58:26.086Z,18.92
2019-02-05T12:59:31.013Z,20.43
2019-02-05T13:00:38.704Z,18.55
2019-02-05T13:01:45.394Z,19.42
2019-02-05T13:02:54.547Z,22.05
2019-02-05T13:03:59.672Z,21.50
2019-02-05T13:05:05.356Z,19.60
2019-02-05T13:06:10.553Z,17.73
2019-02-05T13:07:15.608Z,17.05
2019-02-05T13:08:20.771Z,18.17
2019-02-05T13:09:25.896Z,19.57
2019-02-05T13:10:33.476Z,19.37
2019-02-05T13:11:40.796Z,19.52
2019-02-05T13:12:46.098Z,19.40
2019-02-05T13:13:51.532Z,19.05
2019-02-05T13:14:56.503Z,20.00
2019-02-05T13:16:01.618Z,25.17
2019-02-05T13:17:07.111Z,26.85
2019-02-05T13:18:12.304Z,20.00
2019-02-05T13:19:17.991Z,18.67
2019-02-05T13:20:25.768Z,19.67
2019-02-05T13:21:31.166Z,19.30
2019-02-05T13:22:36.432Z,20.40
2019-02-05T13:23:41.559Z,20.45
2019-02-05T13:24:46.734Z,18.75
2019-02-05T13:25:51.816Z,22.73
2019-02-05T13:26:56.982Z,20.82
2019-02-05T13:28:02.277Z,21.85
2019-02-05T13:29:07.586Z,19.45
2019-02-05T13:30:15.200Z,19.98
2019-02-05T13:31:20.491Z,19.92
2019-02-05T13:32:25.537Z,20.85
2019-02-05T13:33:31.360Z,19.50
2019-02-05T13:34:36.597Z,19.10
2019-02-05T13:35:42.051Z,18.87
2019-02-05T13:36:47.159Z,19.07
2019-02-05T13:37:52.346Z,19.77
2019-02-05T13:38:57.430Z,17.45
2019-02-05T13:40:02.593Z,18.62
2019-02-05T13:41:07.783Z,20.80
2019-02-05T13:42:13.332Z,20.17
2019-02-05T13:43:18.812Z,20.08
2019-02-05T13:44:23.678Z,19.80
2019-02-05T13:45:30.805Z,19.75
2019-02-05T13:46:35.845Z,21.25
2019-02-05T13:47:43.992Z,20.82
2019-02-05T13:48:49.103Z,20.35
2019-02-05T13:49:54.181Z,20.17
2019-02-05T13:50:59.116Z,18.85
2019-02-05T13:52:04.389Z,23.50
2019-02-05T13:53:09.541Z,20.25
2019-02-05T13:54:14.715Z,19.95
2019-02-05T13:55:22.874Z,20.40
2019-02-05T13:56:28.084Z,21.42
2019-02-05T13:57:33.292Z,21.62
2019-02-05T13:58:38.128Z,20.35
2019-02-05T13:59:43.268Z,21.20
2019-02-05T14:00:53.324Z,20.23
2019-02-05T14:02:01.507Z,19.73
2019-02-05T14:03:07.732Z,19.48
2019-02-05T14:04:12.933Z,19.50
2019-02-05T14:05:18.404Z,20.00
2019-02-05T14:06:24.500Z,19.62
2019-02-05T14:07:30.139Z,21.15
2019-02-05T14:08:35.369Z,22.35
2019-02-05T14:09:40.606Z,23.98
2019-02-05T14:10:46.826Z,21.70
2019-02-05T14:11:51.856Z,21.52
2019-02-05T14:12:57.156Z,22.48
2019-02-05T14:14:02.305Z,24.02
2019-02-05T14:15:08.931Z,24.57
2019-02-05T14:16:14.328Z,24.27
2019-02-05T14:17:19.432Z,23.00
2019-02-05T14:18:24.491Z,23.57
2019-02-05T14:19:29.546Z,24.02
2019-02-05T14:20:34.519Z,22.17
2019-02-05T14:21:39.685Z,28.17
2019-02-05T14:22:44.650Z,27.35
2019-02-05T14:23:49.557Z,22.65
2019-02-05T14:24:54.776Z,22.95
2019-02-05T14:26:00.011Z,24.45
2019-02-05T14:27:05.297Z,23.45
2019-02-05T14:28:11.088Z,21.73
2019-02-05T14:29:16.573Z,21.00
2019-02-05T14:30:28.344Z,21.73